Main page
METAR-TAF:

METAR-TAF

Airports :

Mehrabad International Airport

Tehran, Iran

latitude: 35-41N, longitude: 051-21E, elevation: 1204 m

Current weather observation

The report was made 43 minutes ago, at 19:30 UTC
Calm wind
Temperature 29°C
Humidity 16%
Pressure 1008 hPa
Visibility 10 km or more
no clouds below 1500 m and no cumulonimbus

METAR: OIII 251930Z 00000KT CAVOK 29/01 Q1008 A2978

Time: 00:43 (20:13 UTC)

Forecast

The report was made 2 hours and 43 minutes ago, at 17:30 UTC
Forecast valid from 25 at 18 UTC to 26 at 24 UTC
Wind 8 kt from the Northwest
Visibility: 7000 m
Temporary
from 26 at 03 UTC to 26 at 07 UTC
Visibility: 4000 m
Temporary
from 26 at 09 UTC to 26 at 18 UTC
Wind 14 kt from the South/Southeast
Few clouds at a height of 3500 ft, Cumulonimbus.
Scattered clouds at a height of 4000 ft
Scattered clouds at a height of 10000 ft

TAF: OIII 251730Z 2518/2624 32008KT 7000 NSC TEMPO 2603/2607 4000 HZ/DU TEMPO 2609/2618 15014KT FEW035CB SCT040 SCT100

Weather observations and forecasts of more than 4000 airports (METAR and TAF reports).

The available stations are represented by yellow and red dots on the map.

Hover mouse over dot to see the name of the station.

Then click to see weather observations and forecasts.

To change the map : click on the green buttons with a black cross to zoom in, on the green button with a dash to zoom out, or on the green arrows for adjacent maps.


METAR-TAF: